Peabody, MA (01960)

7:12 PM EDT on September 04, 2015 (GMT -0400)
Central Peabody | | Change Station
CLOSE
Current Station
Personal Weather Station
Location: Peabody, MA
Elevation: 92 ft
Nearby Weather Stations

Elev 92 ft 42.53 °N, 70.94 °W | Updated 4 seconds ago

Clear
Clear
64.9 °F
Feels Like 64.9 °F
N
0.0
Wind Variable Wind from East
Gusts 0.0 mph

Today
High -- | Low -- °F
--% Chance of Precip.
Yesterday
High -- | Low -- °F
Precip. -- in
6:11 AM 7:13 PM
Waning Gibbous, 55% visible
Pressure 30.20 in
Visibility 10.0 miles
Clouds Clear
Dew Point 56 °F
Humidity 74%
Rainfall 0.00 in
Snow Depth Not available.
UV 0 out of 12
Pollen 8.50 out of 12
Air Quality Not available.
Flu Activity Not available.
METAR KBVY 042253Z 08003KT 10SM CLR 19/11 A3021 RMK AO2 SLP226 T01890111
Pressure 30.20 in
Visibility 10.0 miles
Clouds Clear
Dew Point 56 °F
Humidity 74%
Rainfall 0.00 in
Snow Depth Not available.
UV 0 out of 12
Pollen 8.50 out of 12
Air Quality Not available.
Flu Activity Not available.
METAR KBVY 042253Z 08003KT 10SM CLR 19/11 A3021 RMK AO2 SLP226 T01890111

10-Day Weather Forecast

×

Almanac

Astronomy

Sep. 04, 2015 Rise Set
Actual Time
Civil Twilight
Nautical Twilight
Astronomical Twilight
Moon
Length of Visible Light
Length of Day
Tomorrow will be .
, % of the Moon is Illuminated

Today's Extremes

State Highs State Lows

Community

WunderPhotos

Upload Photos

1,852,331 photos uploaded!

WunderBlogs® & News

Nearby

Air Quality

  Air Quality AQ Index Pollutant
Not available.

Snow Depth

Station Depth Elevation

Earthquake Activity

City Distance Mag. Time & Date
Minimum magnitude displayed is 2.5.

Coastal Water Temperatures

Place Temperature

Stations

Nearby Weather Stations

Station Location Temp. Windchill Dew Point Humidity Wind Precip. Elev Updated Type